createdAt,value
2023-04-09T00:01:33.712Z,0.48
2023-04-09T00:04:20.629Z,0.47
2023-04-09T00:06:53.671Z,0.46
2023-04-09T00:09:40.594Z,0.48
2023-04-09T00:12:13.694Z,0.48
2023-04-09T00:15:00.622Z,0.48
2023-04-09T00:17:33.714Z,0.50
2023-04-09T00:20:20.612Z,0.50
2023-04-09T00:22:54.150Z,0.53
2023-04-09T00:25:40.608Z,0.53
2023-04-09T00:28:13.702Z,0.53
2023-04-09T00:31:00.600Z,0.51
2023-04-09T00:33:33.775Z,0.53
2023-04-09T00:36:20.592Z,0.54
2023-04-09T00:38:54.896Z,0.53
2023-04-09T00:41:41.608Z,0.50
2023-04-09T00:44:14.696Z,0.50
2023-04-09T00:47:01.658Z,0.51
2023-04-09T00:49:42.615Z,0.51
2023-04-09T00:52:30.594Z,0.52
2023-04-09T00:55:14.625Z,0.58
2023-04-09T00:58:01.593Z,0.58
2023-04-09T01:00:41.659Z,0.59
2023-04-09T01:03:28.716Z,0.62
2023-04-09T01:06:37.022Z,0.65
2023-04-09T01:10:15.612Z,0.68
2023-04-09T01:13:17.608Z,0.69
2023-04-09T01:16:14.643Z,0.67
2023-04-09T01:19:23.633Z,0.64
2023-04-09T01:21:58.741Z,0.59
2023-04-09T01:25:08.635Z,0.60
2023-04-09T01:28:00.650Z,0.58
2023-04-09T01:30:56.651Z,0.56
2023-04-09T01:33:44.627Z,0.57
2023-04-09T01:36:17.706Z,0.54
2023-04-09T01:39:07.655Z,0.54
2023-04-09T01:41:42.738Z,0.51
2023-04-09T01:44:30.615Z,0.49
2023-04-09T01:47:05.789Z,0.49
2023-04-09T01:49:59.620Z,0.48
2023-04-09T01:52:53.644Z,0.46
2023-04-09T01:55:40.638Z,0.45
2023-04-09T01:58:13.741Z,0.47
2023-04-09T02:01:07.676Z,0.47
2023-04-09T02:03:54.775Z,0.46
2023-04-09T02:06:54.637Z,0.43
2023-04-09T02:09:52.627Z,0.46
2023-04-09T02:12:50.864Z,0.48
2023-04-09T02:15:38.644Z,0.49
2023-04-09T02:18:11.773Z,0.51
2023-04-09T02:20:58.653Z,0.56
2023-04-09T02:23:33.568Z,0.57
2023-04-09T02:26:20.640Z,0.60
2023-04-09T02:29:00.688Z,0.60
2023-04-09T02:31:47.651Z,0.62
2023-04-09T02:34:20.746Z,0.64
2023-04-09T02:37:07.661Z,0.63
2023-04-09T02:39:40.815Z,0.65
2023-04-09T02:42:28.634Z,0.65
2023-04-09T02:45:01.741Z,0.63
2023-04-09T02:47:48.672Z,0.66
2023-04-09T02:50:21.779Z,0.69
2023-04-09T02:53:08.653Z,0.70
2023-04-09T02:55:41.739Z,0.72
2023-04-09T02:58:28.647Z,0.71
2023-04-09T03:01:01.787Z,0.69
2023-04-09T03:03:49.749Z,0.68
2023-04-09T03:06:22.759Z,0.69
2023-04-09T03:09:02.656Z,0.71
2023-04-09T03:11:42.751Z,0.70
2023-04-09T03:14:15.946Z,0.71
2023-04-09T03:17:02.660Z,0.69
2023-04-09T03:19:37.754Z,0.69
2023-04-09T03:22:24.671Z,0.71
2023-04-09T03:24:57.847Z,0.75
2023-04-09T03:27:44.658Z,0.77
2023-04-09T03:30:18.769Z,0.74
2023-04-09T03:33:05.721Z,0.73
2023-04-09T03:35:45.706Z,0.74
2023-04-09T03:38:32.690Z,0.75
2023-04-09T03:41:05.783Z,0.76
2023-04-09T03:43:52.690Z,0.76
2023-04-09T03:46:26.003Z,0.76
2023-04-09T03:49:19.725Z,0.73
2023-04-09T03:52:13.705Z,0.72
2023-04-09T03:55:00.654Z,0.73
2023-04-09T03:57:33.829Z,0.73
2023-04-09T04:00:20.677Z,0.71
2023-04-09T04:03:01.030Z,0.69
2023-04-09T04:05:54.673Z,0.66
2023-04-09T04:08:41.691Z,0.62
2023-04-09T04:11:14.786Z,0.62
2023-04-09T04:14:02.693Z,0.61
2023-04-09T04:16:42.856Z,0.59
2023-04-09T04:19:36.682Z,0.57
2023-04-09T04:22:26.123Z,0.56
2023-04-09T04:24:59.796Z,0.56
2023-04-09T04:27:49.702Z,0.54
2023-04-09T04:30:22.789Z,0.55
2023-04-09T04:33:09.692Z,0.58
2023-04-09T04:35:42.858Z,0.60
2023-04-09T04:38:29.685Z,0.62
2023-04-09T04:41:02.898Z,0.66
2023-04-09T04:43:49.686Z,0.67
2023-04-09T04:46:22.883Z,0.71
2023-04-09T04:49:16.707Z,0.72
2023-04-09T04:52:10.693Z,0.76
2023-04-09T04:54:57.734Z,0.80
2023-04-09T04:57:37.733Z,0.82
2023-04-09T05:00:31.717Z,0.81
2023-04-09T05:03:19.770Z,0.82
2023-04-09T05:05:52.776Z,0.85
2023-04-09T05:08:39.723Z,0.90
2023-04-09T05:11:13.181Z,0.92
2023-04-09T05:13:59.732Z,0.94
2023-04-09T05:16:39.741Z,0.98
2023-04-09T05:19:33.694Z,0.99
2023-04-09T05:22:20.762Z,1.03
2023-04-09T05:25:00.701Z,1.08
2023-04-09T05:27:54.743Z,1.10
2023-04-09T05:30:48.727Z,1.15
2023-04-09T05:33:44.711Z,1.15
2023-04-09T05:36:31.698Z,1.18
2023-04-09T05:39:04.865Z,1.16
2023-04-09T05:41:51.717Z,1.12
2023-04-09T05:44:25.812Z,1.13
2023-04-09T05:47:12.761Z,1.19
2023-04-09T05:49:52.724Z,1.23
2023-04-09T05:52:46.748Z,1.25
2023-04-09T05:55:33.722Z,1.30
2023-04-09T05:58:13.708Z,1.34
2023-04-09T06:01:00.719Z,1.39
2023-04-09T06:03:33.942Z,1.46
2023-04-09T06:06:20.737Z,1.49
2023-04-09T06:08:53.914Z,1.50
2023-04-09T06:11:40.720Z,1.52
2023-04-09T06:14:22.726Z,1.60
2023-04-09T06:17:16.752Z,1.70
2023-04-09T06:20:10.733Z,1.75
2023-04-09T06:23:04.774Z,1.78
2023-04-09T06:25:51.726Z,1.91
2023-04-09T06:28:31.726Z,1.97
2023-04-09T06:31:25.781Z,2.04
2023-04-09T06:34:12.755Z,2.16
2023-04-09T06:36:45.875Z,2.24
2023-04-09T06:39:32.745Z,2.36
2023-04-09T06:42:12.756Z,2.40
2023-04-09T06:44:59.748Z,2.46
2023-04-09T06:47:32.874Z,2.54
2023-04-09T06:50:26.783Z,2.63
2023-04-09T06:53:20.765Z,2.70
2023-04-09T06:56:07.761Z,2.77
2023-04-09T06:58:40.869Z,2.80
2023-04-09T07:01:27.801Z,2.88
2023-04-09T07:04:00.998Z,2.96
2023-04-09T07:06:47.740Z,3.04
2023-04-09T07:09:20.845Z,3.12
2023-04-09T07:12:07.936Z,3.23
2023-04-09T07:14:40.837Z,3.31
2023-04-09T07:17:27.762Z,3.39
2023-04-09T07:20:01.045Z,3.51
2023-04-09T07:22:47.739Z,3.64
2023-04-09T07:25:28.748Z,3.68
2023-04-09T07:28:22.744Z,3.73
2023-04-09T07:31:09.789Z,3.73
2023-04-09T07:33:42.835Z,3.70
2023-04-09T07:36:29.982Z,3.81
2023-04-09T07:39:03.834Z,3.90
2023-04-09T07:41:50.760Z,3.98
2023-04-09T07:44:24.635Z,4.10
2023-04-09T07:47:13.739Z,4.46
2023-04-09T07:49:47.119Z,4.62
2023-04-09T07:52:33.772Z,4.98
2023-04-09T07:55:06.905Z,5.47
2023-04-09T07:57:54.787Z,5.90
2023-04-09T08:00:34.759Z,6.05
2023-04-09T08:03:22.128Z,6.14
2023-04-09T08:05:56.442Z,6.25
2023-04-09T08:08:42.791Z,6.39
2023-04-09T08:11:15.883Z,6.59
2023-04-09T08:14:03.755Z,6.65
2023-04-09T08:16:43.850Z,6.93
2023-04-09T08:19:39.280Z,7.48
2023-04-09T08:22:27.777Z,7.85
2023-04-09T08:25:03.894Z,8.10
2023-04-09T08:27:50.758Z,8.65
2023-04-09T08:30:23.877Z,9.15
2023-04-09T08:33:10.806Z,9.54
2023-04-09T08:35:44.313Z,9.82
2023-04-09T08:38:30.782Z,9.95
2023-04-09T08:41:10.768Z,10.11
2023-04-09T08:43:59.815Z,10.06
2023-04-09T08:46:33.878Z,9.97
2023-04-09T08:49:20.787Z,10.22
2023-04-09T08:51:54.878Z,10.55
2023-04-09T08:54:41.860Z,10.51
2023-04-09T08:57:21.782Z,10.45
2023-04-09T09:00:15.771Z,10.41
2023-04-09T09:03:14.912Z,10.58
2023-04-09T09:05:59.784Z,10.93
2023-04-09T09:08:54.120Z,11.23
2023-04-09T09:11:42.795Z,11.12
2023-04-09T09:14:24.783Z,10.97
2023-04-09T09:17:12.838Z,11.22
2023-04-09T09:19:52.785Z,11.56
2023-04-09T09:22:55.964Z,11.97
2023-04-09T09:25:38.860Z,11.92
2023-04-09T09:28:26.817Z,12.04
2023-04-09T09:30:59.940Z,11.74
2023-04-09T09:33:46.814Z,11.42
2023-04-09T09:36:19.905Z,11.44
2023-04-09T09:39:15.800Z,11.29
2023-04-09T09:41:49.918Z,11.52
2023-04-09T09:44:38.860Z,11.70
2023-04-09T09:47:23.143Z,11.74
2023-04-09T09:50:16.848Z,11.95
2023-04-09T09:53:24.021Z,11.94
2023-04-09T09:56:16.808Z,12.29
2023-04-09T09:59:10.812Z,12.54
2023-04-09T10:02:17.881Z,12.05
2023-04-09T10:05:07.840Z,11.57
2023-04-09T10:07:47.846Z,11.42
2023-04-09T10:10:42.005Z,11.69
2023-04-09T10:13:42.929Z,11.87
2023-04-09T10:16:37.016Z,11.83
2023-04-09T10:19:30.881Z,11.91
2023-04-09T10:22:26.835Z,11.88
2023-04-09T10:25:14.853Z,12.06
2023-04-09T10:27:56.836Z,11.97
2023-04-09T10:30:50.908Z,12.07
2023-04-09T10:33:37.882Z,12.43
2023-04-09T10:36:16.102Z,12.82
2023-04-09T10:39:02.859Z,13.24
2023-04-09T10:41:37.945Z,13.43
2023-04-09T10:44:29.840Z,13.32
2023-04-09T10:47:02.950Z,12.96
2023-04-09T10:49:56.928Z,12.46
2023-04-09T10:52:54.859Z,12.71
2023-04-09T10:55:48.849Z,12.92
2023-04-09T10:58:28.850Z,13.05
2023-04-09T11:01:15.830Z,12.78
2023-04-09T11:03:59.836Z,12.50
2023-04-09T11:06:47.866Z,12.31
2023-04-09T11:09:27.854Z,12.31
2023-04-09T11:12:14.856Z,12.10
2023-04-09T11:14:54.868Z,11.94
2023-04-09T11:17:51.920Z,11.84
2023-04-09T11:20:40.863Z,11.70
2023-04-09T11:23:13.952Z,11.49
2023-04-09T11:26:01.876Z,11.15
2023-04-09T11:28:41.837Z,11.03
2023-04-09T11:31:40.922Z,10.89
2023-04-09T11:34:27.853Z,10.80
2023-04-09T11:37:05.378Z,10.77
2023-04-09T11:39:52.859Z,10.68
2023-04-09T11:42:26.000Z,10.65
2023-04-09T11:45:28.876Z,10.66
2023-04-09T11:48:24.965Z,10.64
2023-04-09T11:51:18.904Z,10.49
2023-04-09T11:54:09.881Z,10.40
2023-04-09T11:56:42.970Z,10.29
2023-04-09T11:59:29.875Z,10.23
2023-04-09T12:02:07.552Z,10.19
2023-04-09T12:04:58.004Z,10.10
2023-04-09T12:07:39.611Z,10.07
2023-04-09T12:10:33.909Z,9.96
2023-04-09T12:13:19.896Z,9.98
2023-04-09T12:16:15.125Z,10.06
2023-04-09T12:19:01.888Z,10.03
2023-04-09T12:22:07.883Z,10.00
2023-04-09T12:24:54.898Z,9.95
2023-04-09T12:27:34.888Z,9.96
2023-04-09T12:30:21.904Z,9.91
2023-04-09T12:33:02.042Z,9.92
2023-04-09T12:35:49.010Z,9.88
2023-04-09T12:38:22.146Z,9.80
2023-04-09T12:41:08.901Z,9.67
2023-04-09T12:43:50.060Z,9.65
2023-04-09T12:46:44.084Z,9.64
2023-04-09T12:49:30.897Z,9.68
2023-04-09T12:52:04.200Z,9.63
2023-04-09T12:54:51.912Z,9.61
2023-04-09T12:57:25.070Z,9.61
2023-04-09T13:00:13.929Z,9.62
2023-04-09T13:02:47.328Z,9.57
2023-04-09T13:05:33.904Z,9.55
2023-04-09T13:08:07.101Z,9.55
2023-04-09T13:10:53.934Z,9.49
2023-04-09T13:13:28.687Z,9.53
2023-04-09T13:16:15.911Z,9.55
2023-04-09T13:18:49.025Z,9.55
2023-04-09T13:21:35.928Z,9.56
2023-04-09T13:24:12.067Z,9.56
2023-04-09T13:26:58.911Z,9.57
2023-04-09T13:29:32.106Z,9.56
2023-04-09T13:32:18.934Z,9.56
2023-04-09T13:34:54.176Z,9.55
2023-04-09T13:37:40.924Z,9.55
2023-04-09T13:40:15.047Z,9.50
2023-04-09T13:43:02.051Z,9.44
2023-04-09T13:45:35.078Z,9.40
2023-04-09T13:48:21.930Z,9.40
2023-04-09T13:50:55.405Z,9.43
2023-04-09T13:53:41.919Z,9.37
2023-04-09T13:56:21.964Z,9.38
2023-04-09T13:59:15.920Z,9.36
2023-04-09T14:02:03.068Z,9.31
2023-04-09T14:04:37.321Z,9.29
2023-04-09T14:07:23.945Z,9.32
2023-04-09T14:10:04.012Z,9.31
2023-04-09T14:12:57.929Z,9.31
2023-04-09T14:15:52.992Z,9.33
2023-04-09T14:18:46.945Z,9.33
2023-04-09T14:21:33.983Z,9.35
2023-04-09T14:24:08.069Z,9.33
2023-04-09T14:26:54.958Z,9.29
2023-04-09T14:29:28.073Z,9.22
2023-04-09T14:32:14.964Z,9.20
2023-04-09T14:34:48.087Z,9.22
2023-04-09T14:37:34.948Z,9.20
2023-04-09T14:40:08.072Z,9.20
2023-04-09T14:42:47.989Z,9.22
2023-04-09T14:45:30.471Z,9.21
2023-04-09T14:48:09.975Z,9.24
2023-04-09T14:50:57.975Z,9.24
2023-04-09T14:53:44.961Z,9.22
2023-04-09T14:56:24.944Z,9.16
2023-04-09T14:59:19.056Z,9.12
2023-04-09T15:02:06.160Z,9.13
2023-04-09T15:04:39.246Z,9.12
2023-04-09T15:07:25.970Z,9.09
2023-04-09T15:10:03.146Z,9.09
2023-04-09T15:12:49.968Z,9.08
2023-04-09T15:15:30.052Z,9.09
2023-04-09T15:18:16.962Z,9.03
2023-04-09T15:20:50.775Z,9.02
2023-04-09T15:23:37.956Z,8.99
2023-04-09T15:26:11.285Z,8.96
2023-04-09T15:29:00.001Z,8.94
2023-04-09T15:31:33.148Z,8.93
2023-04-09T15:34:19.975Z,8.92
2023-04-09T15:36:53.062Z,8.92
2023-04-09T15:39:40.985Z,8.88
2023-04-09T15:42:20.216Z,8.84
2023-04-09T15:45:07.024Z,8.80
2023-04-09T15:47:40.289Z,8.77
2023-04-09T15:50:34.223Z,8.71
2023-04-09T15:53:25.983Z,8.64
2023-04-09T15:56:05.971Z,8.57
2023-04-09T15:58:53.207Z,8.49
2023-04-09T16:01:33.077Z,8.45
2023-04-09T16:04:20.067Z,8.39
2023-04-09T16:07:01.143Z,8.31
2023-04-09T16:09:54.979Z,8.24
2023-04-09T16:12:41.997Z,8.21
2023-04-09T16:15:22.997Z,8.21
2023-04-09T16:18:18.031Z,8.20
2023-04-09T16:21:12.119Z,8.12
2023-04-09T16:23:59.018Z,8.07
2023-04-09T16:26:38.989Z,7.99
2023-04-09T16:29:32.991Z,7.92
2023-04-09T16:32:20.045Z,7.86
2023-04-09T16:35:00.007Z,7.82
2023-04-09T16:37:47.016Z,7.77
2023-04-09T16:40:31.011Z,7.72
2023-04-09T16:43:18.004Z,7.69
2023-04-09T16:45:59.070Z,7.63
2023-04-09T16:48:47.995Z,7.55
2023-04-09T16:51:21.173Z,7.42
2023-04-09T16:54:08.004Z,7.36
2023-04-09T16:56:41.507Z,7.25
2023-04-09T16:59:28.006Z,7.16
2023-04-09T17:02:01.550Z,7.06
2023-04-09T17:04:48.182Z,7.00
2023-04-09T17:07:21.954Z,6.89
2023-04-09T17:10:09.038Z,6.81
2023-04-09T17:12:42.234Z,6.75
2023-04-09T17:15:30.010Z,6.68
2023-04-09T17:18:04.188Z,6.62
2023-04-09T17:20:51.051Z,6.55
2023-04-09T17:23:31.021Z,6.51
2023-04-09T17:26:25.020Z,6.40
2023-04-09T17:29:12.101Z,6.31
2023-04-09T17:31:52.011Z,6.23
2023-04-09T17:34:46.004Z,6.14
2023-04-09T17:37:35.025Z,6.05
2023-04-09T17:40:09.177Z,5.97
2023-04-09T17:42:56.067Z,5.83
2023-04-09T17:45:29.127Z,5.72
2023-04-09T17:48:16.031Z,5.64
2023-04-09T17:50:50.085Z,5.61
2023-04-09T17:53:37.041Z,5.50
2023-04-09T17:56:11.109Z,5.46
2023-04-09T17:58:58.051Z,5.38
2023-04-09T18:01:38.133Z,5.28
2023-04-09T18:04:32.213Z,5.22
2023-04-09T18:07:19.030Z,5.15
2023-04-09T18:09:59.043Z,5.08
2023-04-09T18:12:46.041Z,5.01
2023-04-09T18:15:26.132Z,5.00
2023-04-09T18:18:20.038Z,4.95
2023-04-09T18:21:07.068Z,4.86
2023-04-09T18:23:40.510Z,4.75
2023-04-09T18:26:27.026Z,4.72
2023-04-09T18:29:07.046Z,4.64
2023-04-09T18:32:02.054Z,4.58
2023-04-09T18:34:56.057Z,4.53
2023-04-09T18:37:43.037Z,4.50
2023-04-09T18:40:25.043Z,4.44
2023-04-09T18:43:19.100Z,4.35
2023-04-09T18:46:06.068Z,4.29
2023-04-09T18:48:39.292Z,4.25
2023-04-09T18:51:26.052Z,4.22
2023-04-09T18:54:00.709Z,4.24
2023-04-09T18:56:48.101Z,4.23
2023-04-09T18:59:24.166Z,4.22
2023-04-09T19:02:11.377Z,4.18
2023-04-09T19:04:45.281Z,4.17
2023-04-09T19:07:32.066Z,4.11
2023-04-09T19:10:05.178Z,4.07
2023-04-09T19:12:57.042Z,4.06
2023-04-09T19:15:39.124Z,4.03
2023-04-09T19:18:33.087Z,4.03
2023-04-09T19:21:20.339Z,4.03
2023-04-09T19:24:00.069Z,4.04
2023-04-09T19:26:54.082Z,4.05
2023-04-09T19:29:41.098Z,4.07
2023-04-09T19:32:14.759Z,4.09
2023-04-09T19:35:01.070Z,4.11
2023-04-09T19:37:34.786Z,4.09
2023-04-09T19:40:23.071Z,4.12
2023-04-09T19:43:03.082Z,4.15
2023-04-09T19:45:50.111Z,4.17
2023-04-09T19:48:30.284Z,4.21
2023-04-09T19:51:30.072Z,4.23
2023-04-09T19:54:24.077Z,4.24
2023-04-09T19:57:11.062Z,4.23
2023-04-09T19:59:44.205Z,4.26
2023-04-09T20:02:32.216Z,4.29
2023-04-09T20:05:05.172Z,4.30
2023-04-09T20:07:52.109Z,4.31
2023-04-09T20:10:33.076Z,4.31
2023-04-09T20:13:20.087Z,4.33
2023-04-09T20:15:53.239Z,4.33
2023-04-09T20:18:40.093Z,4.30
2023-04-09T20:21:22.082Z,4.27
2023-04-09T20:24:09.093Z,4.27
2023-04-09T20:26:49.097Z,4.28
2023-04-09T20:29:43.085Z,4.29
2023-04-09T20:32:30.161Z,4.30
2023-04-09T20:35:10.094Z,4.29
2023-04-09T20:37:58.122Z,4.27
2023-04-09T20:40:31.261Z,4.25
2023-04-09T20:43:18.100Z,4.26
2023-04-09T20:45:58.142Z,4.23
2023-04-09T20:48:52.289Z,4.19
2023-04-09T20:51:46.095Z,4.16
2023-04-09T20:54:33.098Z,4.12
2023-04-09T20:57:14.082Z,4.10
2023-04-09T21:00:08.116Z,4.08
2023-04-09T21:02:55.331Z,4.05
2023-04-09T21:05:36.107Z,4.04
2023-04-09T21:08:23.101Z,4.01
2023-04-09T21:11:03.107Z,3.98
2023-04-09T21:13:54.653Z,3.97
2023-04-09T21:16:36.151Z,4.01
2023-04-09T21:19:23.114Z,3.99
2023-04-09T21:22:03.115Z,3.97
2023-04-09T21:24:57.135Z,3.98
2023-04-09T21:27:51.154Z,3.97
2023-04-09T21:30:45.147Z,3.98
2023-04-09T21:33:32.127Z,3.98
2023-04-09T21:36:06.999Z,3.96
2023-04-09T21:38:54.275Z,3.94
2023-04-09T21:41:27.233Z,3.92
2023-04-09T21:44:16.111Z,3.92
2023-04-09T21:46:49.238Z,3.88
2023-04-09T21:49:36.131Z,3.83
2023-04-09T21:52:14.492Z,3.84
2023-04-09T21:55:01.119Z,3.83
2023-04-09T21:57:34.296Z,3.84
2023-04-09T22:00:23.142Z,3.83
2023-04-09T22:03:01.592Z,3.82
2023-04-09T22:05:48.139Z,3.81
2023-04-09T22:08:21.267Z,3.81
2023-04-09T22:11:08.125Z,3.82
2023-04-09T22:13:41.241Z,3.84
2023-04-09T22:16:28.262Z,3.86
2023-04-09T22:19:09.139Z,3.83
2023-04-09T22:22:03.158Z,3.83
2023-04-09T22:24:50.156Z,3.83
2023-04-09T22:27:23.237Z,3.79
2023-04-09T22:30:10.161Z,3.79
2023-04-09T22:32:43.267Z,3.76
2023-04-09T22:35:30.172Z,3.78
2023-04-09T22:38:03.375Z,3.75
2023-04-09T22:40:50.155Z,3.73
2023-04-09T22:43:31.144Z,3.75
2023-04-09T22:46:25.231Z,3.76
2023-04-09T22:49:19.171Z,3.75
2023-04-09T22:52:13.139Z,3.73
2023-04-09T22:55:00.161Z,3.69
2023-04-09T22:57:40.157Z,3.62
2023-04-09T23:00:34.151Z,3.53
2023-04-09T23:03:28.248Z,3.46
2023-04-09T23:06:15.145Z,3.39
2023-04-09T23:08:48.261Z,3.33
2023-04-09T23:11:35.151Z,3.30
2023-04-09T23:14:08.250Z,3.24
2023-04-09T23:16:55.170Z,3.17
2023-04-09T23:19:28.249Z,3.11
2023-04-09T23:22:15.170Z,3.07
2023-04-09T23:24:48.255Z,3.02
2023-04-09T23:27:35.171Z,2.96
2023-04-09T23:30:08.854Z,2.91
2023-04-09T23:32:57.435Z,2.88
2023-04-09T23:35:31.456Z,2.85
2023-04-09T23:38:18.164Z,2.82
2023-04-09T23:40:51.313Z,2.80
2023-04-09T23:43:38.176Z,2.78
2023-04-09T23:46:18.157Z,2.75
2023-04-09T23:49:05.168Z,2.70
2023-04-09T23:51:45.198Z,2.69
2023-04-09T23:54:39.175Z,2.66
2023-04-09T23:57:26.166Z,2.65
